Time;durP1;ratioP1;P1;durP2;ratioP2;P2;SDS_P1;SDS_P2;PMS_P1;PMS_P2;Temp;Humidity;BMP_temperature;BMP_pressure;BME280_temperature;BME280_humidity;BME280_pressure;Samples;Min_cycle;Max_cycle;Signal;HPM_P1;HPM_P2
2023/07/25 00:01:01;;;;;;;0.50;0.50;;;;;;;;;;5036550;28;20405;-64
2023/07/25 00:03:27;;;;;;;0.60;0.60;;;;;;;;;;5037119;28;20049;-64
2023/07/25 00:05:53;;;;;;;1.75;0.77;;;;;;;;;;5035906;28;20041;-64
2023/07/25 00:08:19;;;;;;;0.28;0.28;;;;;;;;;;5035504;28;20047;-64
2023/07/25 00:10:45;;;;;;;0.65;0.40;;;;;;;;;;5038724;28;20574;-63
2023/07/25 00:13:12;;;;;;;0.40;0.40;;;;;;;;;;5038538;28;20077;-63
2023/07/25 00:15:38;;;;;;;0.57;0.50;;;;;;;;;;5037138;28;20048;-63
2023/07/25 00:18:04;;;;;;;0.20;0.20;;;;;;;;;;5035114;28;20497;-64
2023/07/25 00:20:30;;;;;;;0.77;0.47;;;;;;;;;;5037384;28;20097;-64
2023/07/25 00:22:56;;;;;;;1.23;0.43;;;;;;;;;;5041255;28;20044;-64
2023/07/25 00:25:22;;;;;;;0.40;0.30;;;;;;;;;;5037066;28;20112;-64
2023/07/25 00:27:48;;;;;;;0.55;0.30;;;;;;;;;;5036580;28;21047;-64
2023/07/25 00:30:14;;;;;;;0.70;0.45;;;;;;;;;;5040588;28;20067;-64
2023/07/25 00:32:40;;;;;;;0.15;0.15;;;;;;;;;;5036076;28;20478;-63
2023/07/25 00:35:07;;;;;;;1.27;0.50;;;;;;;;;;5038616;28;20048;-64
2023/07/25 00:37:33;;;;;;;0.20;0.20;;;;;;;;;;5037100;28;20470;-64
2023/07/25 00:39:59;;;;;;;0.20;0.20;;;;;;;;;;5034882;28;20453;-64
2023/07/25 00:42:25;;;;;;;0.30;0.30;;;;;;;;;;5039999;28;20076;-64
2023/07/25 00:44:51;;;;;;;0.30;0.30;;;;;;;;;;5038694;28;20051;-64
2023/07/25 00:47:18;;;;;;;0.77;0.20;;;;;;;;;;5034146;28;20049;-63
2023/07/25 00:49:44;;;;;;;0.95;0.30;;;;;;;;;;5035022;28;20130;-63
2023/07/25 00:52:10;;;;;;;0.28;0.28;;;;;;;;;;5037799;28;20045;-64
2023/07/25 00:54:40;;;;;;;0.20;0.20;;;;;;;;;;5030358;28;20049;-63
2023/07/25 00:57:06;;;;;;;0.25;0.20;;;;;;;;;;5036147;28;20048;-63
2023/07/25 00:59:32;;;;;;;0.55;0.40;;;;;;;;;;5037649;28;20056;-63
2023/07/25 01:01:58;;;;;;;0.30;0.25;;;;;;;;;;5037310;28;20699;-63
2023/07/25 01:04:25;;;;;;;0.40;0.30;;;;;;;;;;5036384;28;20041;-63
2023/07/25 01:06:52;;;;;;;0.30;0.22;;;;;;;;;;5039108;28;20528;-64
2023/07/25 01:09:34;;;;;;;0.20;0.20;;;;;;;;;;5039649;28;20076;-64
2023/07/25 01:12:00;;;;;;;0.50;0.38;;;;;;;;;;5038241;28;20835;-63
2023/07/25 01:14:26;;;;;;;0.47;0.30;;;;;;;;;;5037399;28;20040;-63
2023/07/25 01:16:52;;;;;;;1.30;0.30;;;;;;;;;;5033185;28;20554;-63
2023/07/25 01:19:18;;;;;;;0.60;0.30;;;;;;;;;;5035507;28;20588;-63
2023/07/25 01:21:45;;;;;;;0.43;0.30;;;;;;;;;;5036785;28;20045;-63
2023/07/25 01:24:11;;;;;;;0.30;0.30;;;;;;;;;;5032201;28;20049;-64
2023/07/25 01:26:37;;;;;;;0.20;0.20;;;;;;;;;;5035576;28;20048;-64
2023/07/25 01:29:03;;;;;;;0.70;0.40;;;;;;;;;;5038187;28;20045;-64
2023/07/25 01:31:29;;;;;;;1.35;0.32;;;;;;;;;;5037588;28;20126;-64
2023/07/25 01:33:55;;;;;;;0.40;0.30;;;;;;;;;;5034959;28;20115;-64
2023/07/25 01:36:21;;;;;;;0.47;0.30;;;;;;;;;;5036850;28;20513;-64
2023/07/25 01:38:47;;;;;;;0.30;0.30;;;;;;;;;;5034760;28;20040;-64
2023/07/25 01:41:13;;;;;;;0.57;0.30;;;;;;;;;;5035227;28;20051;-64
2023/07/25 01:43:39;;;;;;;0.45;0.40;;;;;;;;;;5032112;28;20044;-63
2023/07/25 01:46:05;;;;;;;0.25;0.22;;;;;;;;;;5036462;28;20522;-63
2023/07/25 01:48:31;;;;;;;0.22;0.10;;;;;;;;;;5036021;28;20037;-63
2023/07/25 01:50:57;;;;;;;0.50;0.20;;;;;;;;;;5033822;28;20039;-63
2023/07/25 01:53:23;;;;;;;0.30;0.22;;;;;;;;;;5037177;28;20033;-63
2023/07/25 01:55:49;;;;;;;0.70;0.40;;;;;;;;;;5036998;28;20060;-64
2023/07/25 01:58:15;;;;;;;0.40;0.30;;;;;;;;;;5038868;28;20041;-63
2023/07/25 02:00:41;;;;;;;0.30;0.30;;;;;;;;;;5035422;28;20128;-63
2023/07/25 02:03:09;;;;;;;0.20;0.20;;;;;;;;;;5035050;28;20051;-63
2023/07/25 02:05:35;;;;;;;1.83;0.20;;;;;;;;;;5036334;28;20037;-63
2023/07/25 02:08:01;;;;;;;1.17;0.82;;;;;;;;;;5035951;28;20091;-63
2023/07/25 02:10:29;;;;;;;0.38;0.38;;;;;;;;;;5033733;28;20130;-63
2023/07/25 02:12:56;;;;;;;0.30;0.22;;;;;;;;;;5033455;28;20053;-63
2023/07/25 02:15:22;;;;;;;0.57;0.30;;;;;;;;;;5036747;28;20667;-63
2023/07/25 02:17:49;;;;;;;3.90;0.57;;;;;;;;;;5035347;28;20048;-63
2023/07/25 02:20:15;;;;;;;0.80;0.25;;;;;;;;;;5035450;28;20128;-63
2023/07/25 02:22:41;;;;;;;1.00;0.60;;;;;;;;;;5034679;28;20029;-63
2023/07/25 02:25:07;;;;;;;0.20;0.20;;;;;;;;;;5037264;28;20033;-63
2023/07/25 02:27:33;;;;;;;0.20;0.20;;;;;;;;;;5036592;28;20038;-63
2023/07/25 02:29:59;;;;;;;0.20;0.20;;;;;;;;;;5032584;28;20234;-64
2023/07/25 02:32:25;;;;;;;0.63;0.20;;;;;;;;;;5033545;28;20122;-64
2023/07/25 02:34:51;;;;;;;0.88;0.30;;;;;;;;;;5032923;28;20196;-64
2023/07/25 02:37:17;;;;;;;0.38;0.22;;;;;;;;;;5037660;28;20040;-64
2023/07/25 02:39:43;;;;;;;0.70;0.32;;;;;;;;;;5034202;28;20509;-64
2023/07/25 02:42:09;;;;;;;0.40;0.30;;;;;;;;;;5034079;28;20034;-64
2023/07/25 02:44:35;;;;;;;0.20;0.20;;;;;;;;;;5035942;28;20127;-64
2023/07/25 02:47:02;;;;;;;0.73;0.40;;;;;;;;;;5035273;28;20552;-62
2023/07/25 02:49:28;;;;;;;0.22;0.20;;;;;;;;;;5033300;28;20090;-62
2023/07/25 02:51:54;;;;;;;0.45;0.15;;;;;;;;;;5033772;28;20056;-62
2023/07/25 02:54:20;;;;;;;0.20;0.20;;;;;;;;;;5034186;28;20465;-62
2023/07/25 02:56:46;;;;;;;0.20;0.20;;;;;;;;;;5032168;28;20033;-62
2023/07/25 02:59:12;;;;;;;1.95;0.32;;;;;;;;;;5034428;28;20409;-62
2023/07/25 03:01:38;;;;;;;0.10;0.10;;;;;;;;;;5038378;28;20394;-63
2023/07/25 03:04:04;;;;;;;0.38;0.25;;;;;;;;;;5036282;28;20056;-63
2023/07/25 03:06:30;;;;;;;0.30;0.20;;;;;;;;;;5032801;28;20037;-63
2023/07/25 03:08:56;;;;;;;0.20;0.20;;;;;;;;;;5033678;28;20044;-63
2023/07/25 03:11:23;;;;;;;0.20;0.15;;;;;;;;;;5037940;28;20045;-63
2023/07/25 03:13:49;;;;;;;0.98;0.60;;;;;;;;;;5033253;28;20318;-63
2023/07/25 03:16:15;;;;;;;0.47;0.40;;;;;;;;;;5034105;28;20500;-63
2023/07/25 03:18:41;;;;;;;0.25;0.25;;;;;;;;;;5035140;28;20127;-63
2023/07/25 03:21:07;;;;;;;0.38;0.20;;;;;;;;;;5037539;28;20039;-63
2023/07/25 03:23:33;;;;;;;0.57;0.20;;;;;;;;;;5033279;28;20487;-63
2023/07/25 03:25:59;;;;;;;0.75;0.30;;;;;;;;;;5033465;28;20673;-63
2023/07/25 03:28:25;;;;;;;0.38;0.20;;;;;;;;;;5037312;28;20037;-63
2023/07/25 03:30:51;;;;;;;0.35;0.20;;;;;;;;;;5037761;28;20068;-63
2023/07/25 03:33:17;;;;;;;0.35;0.25;;;;;;;;;;5035514;28;20171;-63
2023/07/25 03:35:43;;;;;;;0.65;0.40;;;;;;;;;;5028765;28;20048;-63
2023/07/25 03:38:09;;;;;;;0.35;0.35;;;;;;;;;;5032547;28;20041;-63
2023/07/25 03:40:35;;;;;;;0.38;0.30;;;;;;;;;;5034420;28;20086;-63
2023/07/25 03:43:01;;;;;;;0.20;0.20;;;;;;;;;;5035869;28;20155;-63
2023/07/25 03:45:27;;;;;;;1.27;0.20;;;;;;;;;;5041147;28;20040;-63
2023/07/25 03:47:53;;;;;;;0.25;0.20;;;;;;;;;;5035959;28;20042;-63
2023/07/25 03:50:19;;;;;;;0.10;0.10;;;;;;;;;;5032636;28;20045;-63
2023/07/25 03:52:45;;;;;;;0.47;0.20;;;;;;;;;;5033174;28;20116;-63
2023/07/25 03:55:11;;;;;;;0.10;0.10;;;;;;;;;;5032546;28;20087;-63
2023/07/25 03:57:37;;;;;;;0.40;0.40;;;;;;;;;;5033386;28;20523;-63
2023/07/25 04:00:04;;;;;;;0.40;0.30;;;;;;;;;;5033610;28;20124;-63
2023/07/25 04:02:30;;;;;;;0.35;0.20;;;;;;;;;;5036232;28;20064;-63
2023/07/25 04:04:56;;;;;;;0.63;0.20;;;;;;;;;;5038099;28;20040;-63
2023/07/25 04:07:22;;;;;;;0.30;0.20;;;;;;;;;;5036395;28;20048;-63
2023/07/25 04:09:48;;;;;;;0.85;0.30;;;;;;;;;;5036111;28;20544;-63
2023/07/25 04:12:14;;;;;;;0.32;0.32;;;;;;;;;;5037601;28;20163;-63
2023/07/25 04:14:41;;;;;;;0.35;0.32;;;;;;;;;;5039082;28;20128;-63
2023/07/25 04:17:07;;;;;;;0.57;0.40;;;;;;;;;;5037286;28;20486;-63
2023/07/25 04:19:33;;;;;;;0.20;0.20;;;;;;;;;;5036905;28;20065;-63
2023/07/25 04:21:59;;;;;;;0.43;0.35;;;;;;;;;;5037203;28;20128;-63
2023/07/25 04:24:25;;;;;;;0.50;0.22;;;;;;;;;;5034075;28;20128;-63
2023/07/25 04:26:51;;;;;;;3.20;0.85;;;;;;;;;;5035827;28;20558;-63
2023/07/25 04:29:17;;;;;;;0.40;0.25;;;;;;;;;;5039442;28;20548;-63
2023/07/25 04:31:44;;;;;;;0.28;0.22;;;;;;;;;;5039616;28;20072;-63
2023/07/25 04:34:10;;;;;;;0.40;0.38;;;;;;;;;;5037189;28;20049;-63
2023/07/25 04:36:36;;;;;;;0.80;0.30;;;;;;;;;;5040097;28;20029;-63
2023/07/25 04:39:02;;;;;;;0.10;0.10;;;;;;;;;;5042580;28;20037;-63
2023/07/25 04:41:28;;;;;;;0.40;0.20;;;;;;;;;;5037110;28;20153;-63
2023/07/25 04:43:54;;;;;;;0.85;0.40;;;;;;;;;;5039351;28;20481;-63
2023/07/25 04:46:20;;;;;;;0.20;0.20;;;;;;;;;;5033956;28;20051;-63
2023/07/25 04:48:46;;;;;;;0.30;0.30;;;;;;;;;;5035613;28;20036;-63
2023/07/25 04:51:12;;;;;;;0.70;0.13;;;;;;;;;;5037096;28;20068;-63
2023/07/25 04:53:38;;;;;;;0.20;0.20;;;;;;;;;;5035211;28;20571;-63
2023/07/25 04:56:05;;;;;;;0.90;0.20;;;;;;;;;;5036351;28;20041;-63
2023/07/25 04:58:31;;;;;;;0.68;0.25;;;;;;;;;;5038333;28;20061;-63
2023/07/25 05:00:57;;;;;;;0.63;0.40;;;;;;;;;;5037472;28;20032;-63
2023/07/25 05:03:25;;;;;;;0.20;0.20;;;;;;;;;;5037463;28;20480;-63
2023/07/25 05:05:52;;;;;;;0.30;0.28;;;;;;;;;;5033668;28;20528;-63
2023/07/25 05:08:18;;;;;;;0.35;0.30;;;;;;;;;;5039368;28;20799;-63
2023/07/25 05:10:44;;;;;;;0.35;0.35;;;;;;;;;;5037526;28;20111;-63
2023/07/25 05:13:10;;;;;;;0.45;0.25;;;;;;;;;;5032592;28;20096;-63
2023/07/25 05:15:38;;;;;;;1.00;0.32;;;;;;;;;;5033653;28;20736;-63
2023/07/25 05:18:04;;;;;;;0.20;0.20;;;;;;;;;;5034068;28;20045;-63
2023/07/25 05:20:30;;;;;;;0.10;0.10;;;;;;;;;;5040685;28;20037;-63
2023/07/25 05:22:56;;;;;;;0.77;0.30;;;;;;;;;;5039562;28;20526;-63
2023/07/25 05:25:22;;;;;;;0.20;0.20;;;;;;;;;;5035962;28;20064;-63
2023/07/25 05:27:48;;;;;;;0.20;0.20;;;;;;;;;;5034927;28;20029;-63
2023/07/25 05:30:14;;;;;;;0.10;0.10;;;;;;;;;;5034028;28;20041;-58
2023/07/25 05:32:40;;;;;;;0.63;0.30;;;;;;;;;;5035247;28;20041;-57
2023/07/25 05:35:07;;;;;;;0.10;0.10;;;;;;;;;;5040774;28;20443;-60
2023/07/25 05:37:36;;;;;;;0.20;0.20;;;;;;;;;;5034523;28;20438;-60
2023/07/25 05:40:03;;;;;;;0.10;0.10;;;;;;;;;;5039656;28;20045;-69
2023/07/25 05:42:29;;;;;;;0.22;0.20;;;;;;;;;;5033083;28;20041;-64
2023/07/25 05:44:55;;;;;;;0.00;0.00;;;;;;;;;;5032466;28;20537;-64
2023/07/25 05:47:21;;;;;;;0.30;0.20;;;;;;;;;;5039734;28;20045;-64
2023/07/25 05:49:47;;;;;;;0.20;0.10;;;;;;;;;;5035660;28;20045;-64
2023/07/25 05:52:13;;;;;;;0.40;0.20;;;;;;;;;;5036383;28;20169;-64
2023/07/25 05:54:39;;;;;;;0.52;0.20;;;;;;;;;;5034945;28;20068;-64
2023/07/25 05:57:07;;;;;;;0.30;0.20;;;;;;;;;;5035470;28;20068;-64
2023/07/25 05:59:33;;;;;;;0.47;0.20;;;;;;;;;;5033099;28;20048;-64
2023/07/25 06:01:59;;;;;;;0.10;0.10;;;;;;;;;;5035627;28;20037;-63
2023/07/25 06:04:25;;;;;;;0.38;0.20;;;;;;;;;;5039185;28;20045;-65
2023/07/25 06:06:51;;;;;;;0.25;0.20;;;;;;;;;;5038037;28;20074;-64
2023/07/25 06:09:17;;;;;;;0.43;0.20;;;;;;;;;;5035845;28;20080;-64
2023/07/25 06:11:43;;;;;;;0.52;0.30;;;;;;;;;;5035606;28;20083;-64
2023/07/25 06:14:09;;;;;;;0.20;0.17;;;;;;;;;;5036680;28;20075;-64
2023/07/25 06:16:35;;;;;;;0.10;0.10;;;;;;;;;;5036351;28;20498;-64
2023/07/25 06:19:02;;;;;;;0.28;0.20;;;;;;;;;;5030360;28;20788;-64
2023/07/25 06:21:28;;;;;;;0.20;0.20;;;;;;;;;;5035835;28;20641;-64
2023/07/25 06:23:54;;;;;;;0.25;0.20;;;;;;;;;;5035188;28;20048;-64
2023/07/25 06:26:20;;;;;;;0.30;0.20;;;;;;;;;;5036015;28;20033;-64
2023/07/25 06:28:46;;;;;;;0.20;0.20;;;;;;;;;;5039448;28;20400;-64
2023/07/25 06:31:12;;;;;;;0.82;0.30;;;;;;;;;;5033725;28;20564;-64
2023/07/25 06:33:38;;;;;;;0.77;0.30;;;;;;;;;;5030716;28;20100;-64
2023/07/25 06:36:04;;;;;;;0.40;0.20;;;;;;;;;;5039799;28;20095;-64
2023/07/25 06:38:30;;;;;;;1.08;0.22;;;;;;;;;;5038627;28;20036;-64
2023/07/25 06:40:57;;;;;;;0.55;0.20;;;;;;;;;;5036562;28;20048;-64
2023/07/25 06:43:23;;;;;;;0.30;0.17;;;;;;;;;;5039894;28;20043;-64
2023/07/25 06:45:50;;;;;;;0.85;0.20;;;;;;;;;;5041467;28;20072;-64
2023/07/25 06:48:16;;;;;;;0.25;0.20;;;;;;;;;;5042591;28;20521;-64
2023/07/25 06:50:42;;;;;;;0.10;0.10;;;;;;;;;;5038636;28;20069;-64
2023/07/25 06:53:08;;;;;;;1.77;0.20;;;;;;;;;;5038206;28;20122;-64
2023/07/25 06:55:34;;;;;;;0.50;0.20;;;;;;;;;;5034564;28;20116;-64
2023/07/25 06:58:01;;;;;;;0.45;0.30;;;;;;;;;;5040049;28;20048;-64
2023/07/25 07:00:27;;;;;;;0.35;0.20;;;;;;;;;;5044481;28;20106;-64
2023/07/25 07:02:54;;;;;;;0.43;0.10;;;;;;;;;;5043323;28;20049;-64
2023/07/25 07:05:20;;;;;;;0.10;0.10;;;;;;;;;;5038210;28;20037;-64
2023/07/25 07:07:46;;;;;;;0.43;0.22;;;;;;;;;;5043399;28;20143;-64
2023/07/25 07:10:12;;;;;;;0.73;0.20;;;;;;;;;;5033569;28;20041;-64
2023/07/25 07:12:45;;;;;;;0.43;0.20;;;;;;;;;;5030721;28;20055;-65
2023/07/25 07:15:12;;;;;;;0.35;0.25;;;;;;;;;;5038119;28;20053;-65
2023/07/25 07:17:38;;;;;;;0.50;0.10;;;;;;;;;;5036568;28;20033;-65
2023/07/25 07:20:04;;;;;;;0.43;0.10;;;;;;;;;;5036660;28;20041;-65
2023/07/25 07:22:30;;;;;;;1.13;0.20;;;;;;;;;;5030498;28;20465;-65
2023/07/25 07:24:56;;;;;;;0.28;0.13;;;;;;;;;;5042117;28;20049;-65
2023/07/25 07:27:23;;;;;;;0.30;0.10;;;;;;;;;;5029698;28;20037;-65
2023/07/25 07:29:49;;;;;;;0.57;0.10;;;;;;;;;;5035677;28;20486;-64
2023/07/25 07:32:15;;;;;;;0.13;0.13;;;;;;;;;;5038059;28;20049;-64
2023/07/25 07:34:41;;;;;;;0.13;0.13;;;;;;;;;;5031423;28;20056;-64
2023/07/25 07:37:07;;;;;;;0.22;0.10;;;;;;;;;;5034439;28;20038;-64
2023/07/25 07:39:33;;;;;;;0.52;0.20;;;;;;;;;;5042339;28;20046;-64
2023/07/25 07:41:59;;;;;;;0.60;0.20;;;;;;;;;;5036888;28;20065;-64
2023/07/25 07:44:25;;;;;;;0.20;0.10;;;;;;;;;;5044847;28;20605;-64
2023/07/25 07:46:51;;;;;;;0.10;0.10;;;;;;;;;;5041691;28;20084;-64
2023/07/25 07:49:17;;;;;;;0.73;0.20;;;;;;;;;;5040021;28;20072;-64
2023/07/25 07:51:43;;;;;;;0.85;0.10;;;;;;;;;;5033875;28;20115;-65
2023/07/25 07:54:09;;;;;;;0.47;0.20;;;;;;;;;;5040976;28;20624;-65
2023/07/25 07:56:35;;;;;;;0.47;0.10;;;;;;;;;;5045158;28;20049;-65
2023/07/25 07:59:01;;;;;;;1.23;0.38;;;;;;;;;;5045807;28;20028;-64
2023/07/25 08:01:27;;;;;;;0.20;0.13;;;;;;;;;;5038872;28;20038;-64
2023/07/25 08:03:53;;;;;;;0.68;0.10;;;;;;;;;;5028192;28;21005;-65
2023/07/25 08:29:55;;;;;;;1.08;0.20;;;;;;;;;;5005365;28;30559;-63
2023/07/25 08:54:29;;;;;;;0.20;0.20;;;;;;;;;;5090891;27;20121;-59
2023/07/25 08:56:56;;;;;;;0.20;0.20;;;;;;;;;;5058575;28;20048;-59
2023/07/25 08:59:22;;;;;;;0.10;0.10;;;;;;;;;;5071759;28;20040;-58
2023/07/25 09:01:48;;;;;;;0.50;0.20;;;;;;;;;;5062403;28;20069;-58
2023/07/25 09:04:15;;;;;;;0.52;0.30;;;;;;;;;;5066873;28;20048;-59
2023/07/25 09:06:41;;;;;;;0.57;0.20;;;;;;;;;;5070786;28;20060;-60
2023/07/25 09:09:08;;;;;;;0.40;0.20;;;;;;;;;;5068335;28;20036;-59
2023/07/25 09:11:34;;;;;;;0.30;0.30;;;;;;;;;;5068569;28;20607;-59
2023/07/25 09:14:03;;;;;;;0.30;0.20;;;;;;;;;;5071085;28;20044;-59
2023/07/25 09:16:30;;;;;;;0.20;0.20;;;;;;;;;;5068526;28;20056;-59
2023/07/25 09:18:56;;;;;;;0.43;0.30;;;;;;;;;;5069511;28;20320;-58
2023/07/25 09:21:22;;;;;;;0.70;0.17;;;;;;;;;;5069693;28;20075;-59
2023/07/25 09:23:51;;;;;;;0.63;0.50;;;;;;;;;;5067451;28;20082;-59
2023/07/25 09:26:21;;;;;;;0.38;0.17;;;;;;;;;;5067638;28;20417;-59
2023/07/25 09:28:51;;;;;;;0.52;0.40;;;;;;;;;;5062826;28;20378;-59
2023/07/25 09:31:20;;;;;;;0.50;0.30;;;;;;;;;;5069827;28;20050;-59
2023/07/25 09:33:48;;;;;;;0.88;0.30;;;;;;;;;;5071871;28;20068;-59
2023/07/25 09:36:14;;;;;;;0.47;0.22;;;;;;;;;;5068450;28;20558;-59
2023/07/25 09:38:59;;;;;;;1.05;0.43;;;;;;;;;;5068221;28;20098;-59
2023/07/25 09:41:26;;;;;;;0.73;0.47;;;;;;;;;;5068357;28;20750;-59
2023/07/25 09:43:52;;;;;;;0.82;0.50;;;;;;;;;;5064160;28;20044;-59
2023/07/25 09:46:19;;;;;;;0.75;0.40;;;;;;;;;;5069461;28;20040;-59
2023/07/25 09:48:51;;;;;;;1.52;0.38;;;;;;;;;;5071937;28;20132;-59
2023/07/25 09:51:17;;;;;;;0.47;0.35;;;;;;;;;;5069871;28;20106;-59
2023/07/25 09:53:50;;;;;;;0.22;0.22;;;;;;;;;;5063535;28;20057;-59
2023/07/25 09:56:16;;;;;;;0.80;0.35;;;;;;;;;;5039852;28;20119;-59
2023/07/25 09:58:42;;;;;;;0.10;0.10;;;;;;;;;;5058669;28;20121;-59
2023/07/25 10:01:10;;;;;;;0.57;0.40;;;;;;;;;;5058798;28;20041;-59
2023/07/25 10:03:37;;;;;;;0.30;0.15;;;;;;;;;;5057528;28;20510;-59
2023/07/25 10:06:04;;;;;;;0.15;0.15;;;;;;;;;;5046842;28;20128;-59
2023/07/25 10:08:31;;;;;;;1.13;0.45;;;;;;;;;;5045640;28;20395;-58
2023/07/25 10:10:57;;;;;;;0.50;0.35;;;;;;;;;;5046637;28;20063;-58
2023/07/25 10:13:23;;;;;;;0.80;0.40;;;;;;;;;;5046804;28;20048;-59
2023/07/25 10:15:51;;;;;;;0.30;0.22;;;;;;;;;;5053397;28;20041;-58
2023/07/25 10:18:21;;;;;;;0.50;0.32;;;;;;;;;;5055796;28;20052;-59
2023/07/25 10:20:48;;;;;;;1.05;0.20;;;;;;;;;;5055613;28;20123;-59
2023/07/25 10:23:14;;;;;;;0.30;0.20;;;;;;;;;;5053154;28;20049;-59
2023/07/25 10:25:41;;;;;;;0.10;0.10;;;;;;;;;;5055849;28;20074;-59
2023/07/25 10:28:07;;;;;;;0.30;0.22;;;;;;;;;;5052183;28;20037;-59
2023/07/25 10:30:40;;;;;;;1.05;0.40;;;;;;;;;;5059470;28;20421;-59
2023/07/25 10:33:07;;;;;;;2.15;0.40;;;;;;;;;;5054244;28;20119;-59
2023/07/25 10:35:49;;;;;;;0.98;0.43;;;;;;;;;;5052437;28;20037;-59
2023/07/25 10:38:34;;;;;;;0.88;0.50;;;;;;;;;;5058137;28;20048;-59
2023/07/25 10:41:01;;;;;;;0.10;0.10;;;;;;;;;;5057997;28;20036;-59
2023/07/25 10:43:29;;;;;;;0.43;0.28;;;;;;;;;;5050805;28;20045;-59
2023/07/25 10:45:55;;;;;;;0.17;0.10;;;;;;;;;;5047277;28;20041;-59
2023/07/25 10:48:28;;;;;;;0.88;0.30;;;;;;;;;;5049161;28;20037;-59
2023/07/25 10:50:54;;;;;;;0.20;0.15;;;;;;;;;;5053485;28;20078;-59
2023/07/25 10:53:21;;;;;;;0.47;0.30;;;;;;;;;;5052912;28;20049;-59
2023/07/25 10:56:08;;;;;;;2.35;0.52;;;;;;;;;;5056442;28;20056;-59
2023/07/25 10:58:35;;;;;;;0.73;0.30;;;;;;;;;;5053111;28;20036;-59
2023/07/25 11:01:02;;;;;;;0.70;0.40;;;;;;;;;;5058179;28;20498;-59
2023/07/25 11:03:29;;;;;;;0.28;0.20;;;;;;;;;;5057132;28;20045;-58
2023/07/25 11:06:07;;;;;;;1.30;0.55;;;;;;;;;;5056766;28;20536;-59
2023/07/25 11:08:33;;;;;;;0.20;0.20;;;;;;;;;;5046733;28;20037;-59
2023/07/25 11:11:19;;;;;;;0.47;0.17;;;;;;;;;;5047932;28;20040;-60
2023/07/25 11:13:46;;;;;;;1.60;0.32;;;;;;;;;;5055802;28;20048;-59
2023/07/25 11:16:13;;;;;;;0.47;0.38;;;;;;;;;;5046560;28;20507;-59
2023/07/25 11:18:50;;;;;;;0.40;0.20;;;;;;;;;;5045861;28;20087;-59
2023/07/25 11:21:17;;;;;;;0.85;0.38;;;;;;;;;;5046447;28;20095;-59
2023/07/25 11:23:43;;;;;;;0.60;0.30;;;;;;;;;;5046342;28;20077;-59
2023/07/25 11:26:10;;;;;;;1.65;0.20;;;;;;;;;;5052834;28;20040;-59
2023/07/25 11:28:39;;;;;;;0.57;0.20;;;;;;;;;;5052369;28;20087;-59
2023/07/25 11:31:05;;;;;;;1.13;0.30;;;;;;;;;;5055961;28;20041;-59
2023/07/25 11:33:38;;;;;;;0.43;0.30;;;;;;;;;;5057552;28;20117;-59
2023/07/25 11:36:05;;;;;;;0.43;0.30;;;;;;;;;;5056470;28;20074;-59
2023/07/25 11:38:31;;;;;;;1.27;0.20;;;;;;;;;;5049574;28;20057;-59
2023/07/25 11:40:57;;;;;;;0.28;0.08;;;;;;;;;;5046104;28;20041;-59
2023/07/25 11:43:23;;;;;;;1.08;0.30;;;;;;;;;;5045679;28;20037;-59
2023/07/25 11:45:49;;;;;;;1.15;0.45;;;;;;;;;;5051218;28;20127;-59
2023/07/25 11:48:19;;;;;;;1.80;0.28;;;;;;;;;;5051861;28;20071;-59
2023/07/25 11:50:48;;;;;;;0.55;0.22;;;;;;;;;;5045433;28;20045;-59
2023/07/25 11:53:18;;;;;;;0.40;0.25;;;;;;;;;;5054928;28;20056;-60
2023/07/25 11:55:45;;;;;;;0.20;0.10;;;;;;;;;;5063538;28;20045;-59
2023/07/25 11:58:16;;;;;;;0.50;0.20;;;;;;;;;;5054761;28;20112;-59
2023/07/25 12:00:42;;;;;;;0.17;0.17;;;;;;;;;;5034408;28;20040;-59
2023/07/25 12:03:27;;;;;;;0.40;0.28;;;;;;;;;;5055241;28;20381;-60
2023/07/25 12:05:54;;;;;;;0.82;0.20;;;;;;;;;;5046164;28;20068;-59
2023/07/25 12:08:49;;;;;;;0.50;0.30;;;;;;;;;;5045893;28;20049;-60
2023/07/25 12:11:16;;;;;;;1.85;0.32;;;;;;;;;;5034603;28;20401;-60
2023/07/25 12:13:48;;;;;;;0.43;0.20;;;;;;;;;;5046239;28;20111;-60
2023/07/25 12:16:25;;;;;;;0.10;0.10;;;;;;;;;;5045239;28;20060;-60
2023/07/25 12:18:52;;;;;;;0.32;0.20;;;;;;;;;;5045482;28;20567;-60
2023/07/25 12:21:25;;;;;;;1.80;0.30;;;;;;;;;;5026688;28;20053;-59
2023/07/25 12:23:52;;;;;;;0.60;0.50;;;;;;;;;;5045475;28;20049;-61
2023/07/25 12:26:21;;;;;;;1.73;0.65;;;;;;;;;;5045410;28;20041;-59
2023/07/25 12:28:47;;;;;;;0.82;0.40;;;;;;;;;;5044591;28;20041;-61
2023/07/25 12:31:14;;;;;;;1.10;0.40;;;;;;;;;;5045003;28;20045;-60
2023/07/25 12:33:41;;;;;;;0.70;0.47;;;;;;;;;;5045031;28;20505;-59
2023/07/25 12:36:07;;;;;;;0.47;0.43;;;;;;;;;;5044939;28;20053;-59
2023/07/25 12:38:33;;;;;;;0.90;0.40;;;;;;;;;;5045530;28;20107;-60
2023/07/25 12:40:59;;;;;;;0.30;0.30;;;;;;;;;;5045138;28;20049;-61
2023/07/25 12:43:25;;;;;;;1.27;0.50;;;;;;;;;;5044422;28;20051;-60
2023/07/25 12:45:51;;;;;;;0.88;0.13;;;;;;;;;;5045417;28;20045;-60
2023/07/25 12:48:17;;;;;;;0.55;0.30;;;;;;;;;;5044754;28;20874;-60
2023/07/25 12:50:43;;;;;;;0.57;0.28;;;;;;;;;;5044594;28;20049;-60
2023/07/25 12:53:10;;;;;;;0.28;0.28;;;;;;;;;;5044885;28;20060;-60
2023/07/25 12:55:36;;;;;;;2.03;0.30;;;;;;;;;;5045358;28;20052;-60
2023/07/25 12:58:02;;;;;;;0.75;0.32;;;;;;;;;;5026524;28;20102;-59
2023/07/25 13:00:29;;;;;;;0.95;0.40;;;;;;;;;;5044958;28;20047;-60
2023/07/25 13:02:55;;;;;;;1.75;0.50;;;;;;;;;;5044597;28;20048;-59
2023/07/25 13:05:21;;;;;;;1.25;0.40;;;;;;;;;;5045256;28;20067;-60
2023/07/25 13:07:47;;;;;;;1.38;0.63;;;;;;;;;;5045339;28;20529;-60
2023/07/25 13:10:13;;;;;;;0.30;0.20;;;;;;;;;;5044298;28;20136;-60
2023/07/25 13:12:39;;;;;;;0.32;0.30;;;;;;;;;;5045036;28;20036;-60
2023/07/25 13:15:05;;;;;;;1.88;0.40;;;;;;;;;;5045134;28;20041;-60
2023/07/25 13:17:32;;;;;;;0.17;0.10;;;;;;;;;;5044107;28;20045;-60
2023/07/25 13:19:58;;;;;;;0.63;0.30;;;;;;;;;;5044807;28;20514;-60
2023/07/25 13:22:24;;;;;;;0.25;0.15;;;;;;;;;;5044552;28;20564;-60
2023/07/25 13:24:55;;;;;;;0.13;0.10;;;;;;;;;;5044292;28;20045;-60
2023/07/25 13:27:25;;;;;;;0.98;0.38;;;;;;;;;;5044615;28;20051;-60
2023/07/25 13:29:51;;;;;;;0.57;0.40;;;;;;;;;;5047552;28;20687;-60
2023/07/25 13:32:17;;;;;;;0.22;0.20;;;;;;;;;;5047837;28;20049;-60
2023/07/25 13:34:43;;;;;;;1.30;0.40;;;;;;;;;;5048550;28;20045;-60
2023/07/25 13:37:09;;;;;;;0.50;0.38;;;;;;;;;;5048199;28;20114;-59
2023/07/25 13:39:35;;;;;;;0.52;0.45;;;;;;;;;;5048184;28;20516;-60
2023/07/25 13:42:01;;;;;;;0.38;0.30;;;;;;;;;;5047984;28;20052;-61
2023/07/25 13:44:27;;;;;;;0.38;0.20;;;;;;;;;;5048286;28;20051;-60
2023/07/25 13:46:53;;;;;;;0.70;0.35;;;;;;;;;;5047968;28;20128;-60
2023/07/25 13:49:19;;;;;;;0.68;0.35;;;;;;;;;;5048065;28;20048;-60
2023/07/25 13:51:45;;;;;;;0.55;0.30;;;;;;;;;;5047698;28;20037;-60
2023/07/25 13:54:11;;;;;;;0.75;0.52;;;;;;;;;;5047421;28;20527;-60
2023/07/25 13:56:37;;;;;;;0.20;0.10;;;;;;;;;;5048385;28;20082;-60
2023/07/25 13:59:03;;;;;;;0.32;0.30;;;;;;;;;;5047688;28;20037;-61
2023/07/25 14:01:29;;;;;;;1.00;0.52;;;;;;;;;;5048198;28;20700;-60
2023/07/25 14:03:55;;;;;;;1.15;0.50;;;;;;;;;;5053505;28;20036;-60
2023/07/25 14:06:21;;;;;;;1.08;0.50;;;;;;;;;;5053637;28;20061;-61
2023/07/25 14:08:47;;;;;;;1.10;0.40;;;;;;;;;;5048721;28;20083;-61
2023/07/25 14:11:13;;;;;;;0.63;0.40;;;;;;;;;;5051659;28;20053;-62
2023/07/25 14:13:39;;;;;;;0.65;0.40;;;;;;;;;;5051439;28;20044;-62
2023/07/25 14:16:06;;;;;;;0.20;0.20;;;;;;;;;;5052818;28;20078;-61
2023/07/25 14:18:32;;;;;;;0.68;0.30;;;;;;;;;;5051031;28;20083;-62
2023/07/25 14:21:01;;;;;;;0.25;0.20;;;;;;;;;;5053337;28;20049;-61
2023/07/25 14:23:27;;;;;;;0.17;0.17;;;;;;;;;;5049160;28;20509;-62
2023/07/25 14:25:53;;;;;;;3.53;0.43;;;;;;;;;;5031166;28;20056;-61
2023/07/25 14:28:19;;;;;;;0.47;0.47;;;;;;;;;;5054808;28;20466;-61
2023/07/25 14:30:45;;;;;;;0.52;0.40;;;;;;;;;;5057755;28;20045;-61
2023/07/25 14:33:11;;;;;;;0.35;0.35;;;;;;;;;;5057042;28;20041;-61
2023/07/25 14:35:37;;;;;;;0.52;0.20;;;;;;;;;;5056520;28;20405;-61
2023/07/25 14:38:03;;;;;;;0.85;0.60;;;;;;;;;;5061667;28;20777;-62
2023/07/25 14:40:29;;;;;;;0.88;0.50;;;;;;;;;;5053500;28;20037;-61
2023/07/25 14:42:55;;;;;;;0.43;0.40;;;;;;;;;;5050096;28;20423;-61
2023/07/25 14:45:21;;;;;;;1.05;0.40;;;;;;;;;;5057194;28;20094;-60
2023/07/25 14:47:47;;;;;;;1.58;0.40;;;;;;;;;;5049873;28;20049;-61
2023/07/25 14:50:13;;;;;;;0.20;0.20;;;;;;;;;;5047142;28;20086;-61
2023/07/25 14:52:40;;;;;;;0.50;0.30;;;;;;;;;;5053094;28;20429;-62
2023/07/25 14:55:06;;;;;;;1.13;0.35;;;;;;;;;;5053700;28;20112;-62
2023/07/25 14:57:32;;;;;;;0.75;0.43;;;;;;;;;;5051640;28;20037;-62
2023/07/25 14:59:58;;;;;;;0.52;0.30;;;;;;;;;;5057384;28;20086;-62
2023/07/25 15:02:24;;;;;;;0.60;0.40;;;;;;;;;;5053270;28;20040;-62
2023/07/25 15:04:50;;;;;;;0.70;0.30;;;;;;;;;;5056411;28;20077;-62
2023/07/25 15:07:16;;;;;;;0.73;0.60;;;;;;;;;;5059939;28;20063;-62
2023/07/25 15:09:42;;;;;;;0.75;0.32;;;;;;;;;;5056602;28;20547;-62
2023/07/25 15:12:08;;;;;;;1.05;0.55;;;;;;;;;;5050669;28;20047;-62
2023/07/25 15:14:34;;;;;;;0.43;0.40;;;;;;;;;;5055993;28;20036;-61
2023/07/25 15:17:00;;;;;;;0.98;0.30;;;;;;;;;;5045906;28;20692;-61
2023/07/25 15:19:27;;;;;;;0.73;0.38;;;;;;;;;;5046216;28;20611;-62
2023/07/25 15:21:53;;;;;;;0.20;0.20;;;;;;;;;;5047041;28;20053;-61
2023/07/25 15:24:19;;;;;;;0.82;0.45;;;;;;;;;;5048947;28;20394;-62
2023/07/25 15:26:45;;;;;;;0.47;0.22;;;;;;;;;;5048883;28;20041;-61